Alice International Airport
KALI : now visible

Airfield :











YOU CAN JOIN US ON...

 
LOGIN :

Register | Disclaimer

   EN    FR    IT 

 









Legend :    VFR   Marginal VFR   IFR   Intensive IFR   Very Intensive IFR
Visi :
Ceiling :
>= 8 km
>= 3000ft
5 to 8 km
1000 to 3000 ft
1500m to 5 km
500 to 1000 ft
800 to 1500m
200 to 500 ft
< 800m
< 200 ft
Symbols :   Thunderstorms  Fog  Heavy snow  Heavy precipitations  Wind > 20 kt






- Airport Elevation : 178 ft


KALI - Alice International

CURRENT METAR :
  • 291653Z AUTO 34012KT 10SM CLR 29/22 A3006 RMK AO2 SLP177 T02890222

EXPIRED METARs :
  • 291553Z AUTO 32012KT 10SM CLR 27/21 A3006 RMK AO2 SLP178 T02720206
  • 291543Z AUTO 33011KT 3SM HZ CLR 27/20 A3007 RMK AO2 T02670200
  • 291453Z AUTO 32012KT 1 1/2SM HZ CLR 24/20 A3007 RMK AO2 SLP180 60000 T02390200 51015
  • 291418Z AUTO 31011KT 1 1/2SM HZ SCT024 SCT065 23/20 A3006 RMK AO2 T02280200

TAF KALI
Valid from the 29 at 15:00 until the 30 at 12:00 UTC


291507Z 2915/3012 32012KT P6SM FEW025 BKN250
FM300300 VRB04KT P6SM SCT035
KZHU FIR / North America



MET'MAP, your aeronautical weather chart ! - Copyright ORBIFLY December 2007 - Disclaimer

ORBIFLY MET'MAP TEAM :

Programming & Development : Alexandra Zaïnal
Concept & original design : Baudouin d'Aumeries
Assistance for programming : Marc-Olivier Méhu
Technical & hardware support : Manuel Goepfert

Contact : metmap@orbifly.com




SOURCES & CREDITS :

   NOAA       Earth
Advisory